Time;durP1;ratioP1;P1;durP2;ratioP2;P2;SDS_P1;SDS_P2;PMS_P1;PMS_P2;Temp;Humidity;BMP_temperature;BMP_pressure;BME280_temperature;BME280_humidity;BME280_pressure;Samples;Min_cycle;Max_cycle;Signal;HPM_P1;HPM_P2
2021/08/02 00:02:07;;;;;;;20.57;18.40;;;;;;;21.94;88.17;99719.77;1623020;86;21091;-74
2021/08/02 00:04:41;;;;;;;20.37;18.10;;;;;;;21.95;88.31;99727.37;1626370;86;21585;-73
2021/08/02 00:07:10;;;;;;;20.20;18.17;;;;;;;21.96;88.53;99727.58;1630861;86;21130;-74
2021/08/02 00:09:37;;;;;;;19.87;17.70;;;;;;;21.96;88.63;99735.16;1634936;86;21267;-75
2021/08/02 00:12:13;;;;;;;19.47;17.40;;;;;;;21.98;88.64;99733.44;1633969;86;21684;-75
2021/08/02 00:14:41;;;;;;;20.53;17.90;;;;;;;21.98;88.63;99735.61;1627894;85;21099;-75
2021/08/02 00:17:08;;;;;;;20.20;17.70;;;;;;;22.00;88.62;99747.48;1621622;86;21073;-73
2021/08/02 00:19:36;;;;;;;20.37;18.23;;;;;;;22.01;88.59;99754.48;1639719;86;21071;-74
2021/08/02 00:22:03;;;;;;;21.17;18.70;;;;;;;22.01;88.69;99761.28;1640985;86;21142;-73
2021/08/02 00:24:30;;;;;;;21.67;19.37;;;;;;;22.02;88.75;99758.80;1640732;86;21556;-73
2021/08/02 00:26:57;;;;;;;21.77;19.40;;;;;;;22.03;88.68;99763.66;1639238;86;21166;-73
2021/08/02 00:29:26;;;;;;;20.87;18.67;;;;;;;22.05;88.68;99762.75;1643344;85;21730;-73
2021/08/02 00:31:54;;;;;;;21.03;18.57;;;;;;;22.08;88.61;99762.02;1642899;85;22670;-74
2021/08/02 00:34:22;;;;;;;21.07;18.90;;;;;;;22.10;88.54;99773.34;1648629;84;21826;-73
2021/08/02 00:37:03;;;;;;;20.47;18.33;;;;;;;22.11;88.50;99768.11;1679765;84;21129;-73
2021/08/02 00:39:45;;;;;;;20.57;18.37;;;;;;;22.12;88.44;99752.03;1686382;82;21539;-73
2021/08/02 00:42:28;;;;;;;21.10;18.93;;;;;;;22.13;88.32;99754.38;1690336;84;21036;-74
2021/08/02 00:45:06;;;;;;;20.97;18.77;;;;;;;22.14;88.23;99737.48;1672929;84;20944;-73
2021/08/02 00:47:39;;;;;;;21.97;18.63;;;;;;;22.13;88.07;99732.63;1708250;83;21160;-72
2021/08/02 00:50:13;;;;;;;20.87;18.67;;;;;;;22.14;87.96;99731.47;1673072;83;21117;-73
2021/08/02 00:52:45;;;;;;;21.17;19.07;;;;;;;22.14;87.84;99731.47;1681457;84;20969;-75
2021/08/02 00:55:13;;;;;;;20.80;18.70;;;;;;;22.14;87.83;99738.85;1675268;85;21067;-75
2021/08/02 00:57:41;;;;;;;21.43;19.17;;;;;;;22.14;87.83;99745.65;1685395;84;21024;-75
2021/08/02 01:00:15;;;;;;;21.77;19.30;;;;;;;22.11;87.82;99747.17;1685055;83;21081;-75
2021/08/02 01:02:50;;;;;;;21.60;19.27;;;;;;;22.10;87.82;99732.55;1672726;84;21160;-74
2021/08/02 01:05:18;;;;;;;21.27;18.47;;;;;;;22.07;87.85;99720.44;1684388;84;21034;-75
2021/08/02 01:08:05;;;;;;;20.90;18.67;;;;;;;22.01;87.92;99715.88;1674181;84;21055;-74
2021/08/02 01:10:35;;;;;;;24.43;18.90;;;;;;;21.91;88.01;99708.81;1681859;82;21050;-74
2021/08/02 01:13:06;;;;;;;24.47;18.93;;;;;;;21.81;88.18;99706.63;1686484;84;21079;-74
2021/08/02 01:15:33;;;;;;;20.60;18.10;;;;;;;21.74;88.32;99695.81;1684280;84;22229;-75
2021/08/02 01:18:02;;;;;;;23.63;19.13;;;;;;;21.69;88.48;99697.45;1679869;84;21044;-74
2021/08/02 01:20:34;;;;;;;21.67;19.27;;;;;;;21.65;88.63;99689.80;1687080;82;21031;-75
2021/08/02 01:23:05;;;;;;;23.57;18.80;;;;;;;21.64;88.82;99687.41;1678520;84;21004;-74
2021/08/02 01:25:40;;;;;;;21.70;19.37;;;;;;;21.62;88.92;99682.34;1677614;84;21538;-75
2021/08/02 01:28:19;;;;;;;20.83;18.73;;;;;;;21.63;89.07;99681.20;1688482;84;21997;-74
2021/08/02 01:30:56;;;;;;;22.20;19.50;;;;;;;21.63;89.12;99673.05;1677118;82;21617;-74
2021/08/02 01:33:31;;;;;;;20.73;18.53;;;;;;;21.63;89.17;99682.55;1679397;84;21642;-74
2021/08/02 01:36:04;;;;;;;22.17;19.00;;;;;;;21.63;89.20;99681.77;1687268;84;21043;-74
2021/08/02 01:38:34;;;;;;;21.30;19.03;;;;;;;21.60;89.15;99685.97;1688310;84;21030;-75
2021/08/02 01:41:03;;;;;;;23.07;19.03;;;;;;;21.57;89.22;99694.83;1681728;82;21820;-75
2021/08/02 01:43:33;;;;;;;22.60;18.07;;;;;;;21.52;89.39;99689.10;1681997;84;21027;-75
2021/08/02 01:46:23;;;;;;;20.40;18.37;;;;;;;21.46;89.55;99674.77;1690838;84;21376;-76
2021/08/02 01:48:57;;;;;;;22.15;19.77;;;;;;;21.39;89.84;99680.02;1673957;84;21022;-76
2021/08/02 01:51:28;;;;;;;22.77;19.17;;;;;;;21.32;90.20;99687.38;1679457;82;22032;-75
2021/08/02 01:54:32;;;;;;;21.00;18.87;;;;;;;21.32;90.38;99683.31;1669016;84;21164;-75
2021/08/02 01:57:29;;;;;;;22.03;19.27;;;;;;;21.34;90.51;99679.69;1673553;84;21110;-73
2021/08/02 02:00:14;;;;;;;23.50;20.10;;;;;;;21.36;90.60;99673.95;1693636;84;21031;-72
2021/08/02 02:02:50;;;;;;;21.43;18.90;;;;;;;21.38;90.71;99676.52;1687596;82;21040;-72
2021/08/02 02:05:19;;;;;;;23.07;20.40;;;;;;;21.42;90.81;99677.95;1685881;84;21071;-73
2021/08/02 02:07:56;;;;;;;24.80;20.80;;;;;;;21.46;90.90;99669.34;1677733;84;21104;-73
2021/08/02 02:10:25;;;;;;;21.30;19.03;;;;;;;21.49;90.96;99658.55;1692576;84;20984;-72
2021/08/02 02:12:53;;;;;;;20.27;18.10;;;;;;;21.53;91.02;99655.92;1684039;82;21031;-73
2021/08/02 02:15:22;;;;;;;21.90;19.57;;;;;;;21.54;91.00;99642.55;1684867;84;21113;-74
2021/08/02 02:17:57;;;;;;;23.27;19.60;;;;;;;21.52;90.93;99644.27;1685916;84;21127;-74
2021/08/02 02:20:25;;;;;;;24.33;19.87;;;;;;;21.50;90.84;99649.83;1683192;84;21136;-74
2021/08/02 02:22:52;;;;;;;22.20;19.80;;;;;;;21.48;90.93;99644.73;1678534;82;21122;-74
2021/08/02 02:25:20;;;;;;;21.20;19.10;;;;;;;21.47;90.93;99647.81;1673900;84;21206;-76
2021/08/02 02:27:47;;;;;;;21.90;19.60;;;;;;;21.47;90.89;99647.24;1688622;84;21130;-75
2021/08/02 02:30:14;;;;;;;21.33;19.07;;;;;;;21.48;90.85;99643.95;1674956;84;21047;-75
2021/08/02 02:32:41;;;;;;;21.13;19.00;;;;;;;21.46;90.80;99644.31;1661710;84;22219;-74
2021/08/02 02:35:09;;;;;;;21.10;19.10;;;;;;;21.46;90.80;99640.81;1678664;84;21001;-74
2021/08/02 02:37:37;;;;;;;22.70;19.53;;;;;;;21.46;90.81;99633.45;1680089;84;21071;-74
2021/08/02 02:40:07;;;;;;;21.40;19.20;;;;;;;21.47;90.87;99633.66;1676332;84;21444;-74
2021/08/02 02:42:34;;;;;;;22.23;19.80;;;;;;;21.44;91.07;99637.08;1680400;82;21072;-74
2021/08/02 02:45:06;;;;;;;22.90;19.80;;;;;;;21.39;91.39;99653.66;1669800;83;21744;-74
2021/08/02 02:47:33;;;;;;;21.87;19.50;;;;;;;21.37;91.54;99669.51;1701424;83;21060;-75
2021/08/02 02:50:02;;;;;;;21.50;19.23;;;;;;;21.37;91.68;99683.66;1651390;84;21094;-74
2021/08/02 02:52:30;;;;;;;21.83;19.60;;;;;;;21.37;91.86;99695.31;1682360;83;21087;-74
2021/08/02 02:54:58;;;;;;;22.27;20.03;;;;;;;21.39;92.09;99699.02;1698576;83;21048;-74
2021/08/02 02:57:25;;;;;;;21.90;19.57;;;;;;;21.42;92.36;99702.41;1699857;83;22142;-74
2021/08/02 02:59:52;;;;;;;23.97;20.63;;;;;;;21.45;92.57;99690.27;1686961;83;21591;-73
2021/08/02 03:02:19;;;;;;;23.47;21.00;;;;;;;21.49;92.69;99684.94;1688642;83;21627;-74
2021/08/02 03:04:47;;;;;;;22.47;20.17;;;;;;;21.53;92.84;99686.59;1676816;83;21060;-73
2021/08/02 03:07:15;;;;;;;21.00;18.80;;;;;;;21.59;92.99;99690.41;1693493;84;21122;-73
2021/08/02 03:09:46;;;;;;;21.73;19.57;;;;;;;21.63;93.19;99692.64;1701460;83;21808;-74
2021/08/02 03:12:14;;;;;;;23.30;19.47;;;;;;;21.68;93.31;99699.15;1655190;84;21107;-75
2021/08/02 03:14:41;;;;;;;21.23;19.10;;;;;;;21.74;93.45;99689.59;1686872;83;21031;-74
2021/08/02 03:17:08;;;;;;;20.90;18.17;;;;;;;21.81;93.52;99688.97;1653145;84;21617;-73
2021/08/02 03:19:36;;;;;;;20.43;18.23;;;;;;;21.90;93.53;99688.21;1688474;83;21615;-71
2021/08/02 03:22:11;;;;;;;20.67;18.67;;;;;;;21.98;93.38;99689.94;1686956;85;21947;-71
2021/08/02 03:24:47;;;;;;;23.27;17.93;;;;;;;22.08;93.21;99697.56;1690698;83;21073;-70
2021/08/02 03:27:31;;;;;;;19.10;17.10;;;;;;;22.19;92.80;99700.54;1679758;84;21099;-70
2021/08/02 03:30:02;;;;;;;18.87;17.07;;;;;;;22.28;92.34;99699.77;1700332;83;21045;-70
2021/08/02 03:32:28;;;;;;;19.07;17.00;;;;;;;22.37;91.67;99709.06;1704876;83;21044;-70
2021/08/02 03:35:03;;;;;;;19.20;17.20;;;;;;;22.45;90.95;99728.49;1684918;84;21151;-71
2021/08/02 03:37:29;;;;;;;19.13;17.07;;;;;;;22.48;90.07;99729.92;1690498;83;21378;-68
2021/08/02 03:39:56;;;;;;;19.80;17.50;;;;;;;22.55;89.58;99740.75;1690283;84;21029;-73
2021/08/02 03:42:23;;;;;;;19.30;17.40;;;;;;;22.60;89.15;99714.59;1706589;83;21093;-70
2021/08/02 03:44:50;;;;;;;20.00;17.60;;;;;;;22.65;88.56;99727.92;1679086;83;21034;-70
2021/08/02 03:47:19;;;;;;;19.33;17.27;;;;;;;22.69;87.76;99730.14;1696994;83;21140;-69
2021/08/02 03:49:46;;;;;;;19.27;17.27;;;;;;;22.73;87.55;99724.77;1704121;83;20977;-70
2021/08/02 03:52:13;;;;;;;17.90;16.10;;;;;;;22.81;87.29;99725.13;1694874;83;20963;-69
2021/08/02 03:54:40;;;;;;;18.90;17.10;;;;;;;22.88;86.85;99717.88;1701974;83;20990;-69
2021/08/02 03:57:07;;;;;;;20.10;17.77;;;;;;;22.97;86.47;99703.27;1689539;82;20982;-70
2021/08/02 03:59:33;;;;;;;19.53;17.13;;;;;;;23.03;86.10;99683.55;1691469;83;21507;-70
2021/08/02 04:02:00;;;;;;;18.90;17.07;;;;;;;23.10;85.71;99681.52;1692099;84;20923;-71
2021/08/02 04:04:27;;;;;;;19.10;17.07;;;;;;;23.19;85.34;99671.17;1696875;83;21041;-70
2021/08/02 04:06:54;;;;;;;18.70;16.90;;;;;;;23.31;85.00;99671.58;1686097;83;20981;-70
2021/08/02 04:09:21;;;;;;;18.47;16.50;;;;;;;23.44;84.81;99667.52;1691075;84;22042;-72
2021/08/02 04:11:49;;;;;;;19.37;16.93;;;;;;;23.58;84.30;99660.91;1680205;84;21091;-71
2021/08/02 04:14:16;;;;;;;18.80;16.57;;;;;;;23.73;83.76;99654.36;1695966;82;21204;-72
2021/08/02 04:16:43;;;;;;;19.00;16.93;;;;;;;23.90;83.17;99655.76;1687286;83;20949;-71
2021/08/02 04:19:10;;;;;;;18.13;16.17;;;;;;;24.05;82.60;99646.04;1698564;83;21022;-72
2021/08/02 04:21:36;;;;;;;18.67;16.53;;;;;;;24.21;81.99;99645.05;1701791;83;20973;-71
2021/08/02 04:24:04;;;;;;;19.10;17.20;;;;;;;24.36;81.28;99652.27;1696341;83;21538;-72
2021/08/02 04:26:30;;;;;;;20.30;16.93;;;;;;;24.50;80.37;99655.17;1695097;83;21053;-72
2021/08/02 04:28:57;;;;;;;19.33;17.33;;;;;;;24.63;79.57;99650.25;1700986;83;21568;-73
2021/08/02 04:31:28;;;;;;;21.30;19.00;;;;;;;24.76;78.96;99640.63;1697046;83;21642;-71
2021/08/02 04:33:55;;;;;;;22.37;19.97;;;;;;;24.89;78.09;99641.73;1685197;84;21056;-71
2021/08/02 04:36:22;;;;;;;18.13;16.33;;;;;;;25.00;77.43;99627.58;1695342;82;21514;-72
2021/08/02 04:38:49;;;;;;;21.47;19.43;;;;;;;25.11;76.98;99635.89;1691474;84;21048;-72
2021/08/02 04:41:16;;;;;;;19.70;17.70;;;;;;;25.21;76.23;99632.50;1685401;83;21081;-72
2021/08/02 04:43:44;;;;;;;19.77;17.77;;;;;;;25.28;75.54;99631.17;1675182;84;21064;-71
2021/08/02 04:46:10;;;;;;;17.53;15.50;;;;;;;25.30;74.61;99635.67;1681096;84;20999;-72
2021/08/02 04:48:38;;;;;;;17.30;15.37;;;;;;;25.29;74.33;99640.94;1699492;83;21165;-71
2021/08/02 04:51:05;;;;;;;17.30;15.13;;;;;;;25.29;74.23;99653.23;1692942;83;21041;-71
2021/08/02 04:53:31;;;;;;;16.77;14.90;;;;;;;25.30;74.34;99663.00;1707519;83;21096;-71
2021/08/02 04:55:58;;;;;;;17.43;15.43;;;;;;;25.29;74.07;99663.39;1692498;82;21471;-71
2021/08/02 04:58:25;;;;;;;15.53;13.93;;;;;;;25.28;73.88;99662.61;1692937;83;22464;-72
2021/08/02 05:00:52;;;;;;;17.53;14.73;;;;;;;25.29;73.86;99644.26;1715720;83;22203;-71
2021/08/02 05:03:19;;;;;;;17.90;16.00;;;;;;;25.31;74.10;99637.84;1693758;83;21773;-73
2021/08/02 05:05:45;;;;;;;17.83;15.97;;;;;;;25.34;74.11;99632.98;1694409;82;21111;-71
2021/08/02 05:08:12;;;;;;;18.07;15.90;;;;;;;25.39;73.65;99629.30;1683241;84;21027;-71
2021/08/02 05:10:40;;;;;;;16.67;14.97;;;;;;;25.44;73.44;99618.02;1693632;82;21866;-77
2021/08/02 05:13:06;;;;;;;19.60;17.50;;;;;;;25.50;73.32;99611.03;1698231;83;21523;-76
2021/08/02 05:15:34;;;;;;;17.03;15.33;;;;;;;25.56;73.38;99602.46;1693548;83;21181;-77
2021/08/02 05:18:00;;;;;;;16.87;14.43;;;;;;;25.61;73.44;99593.32;1695443;82;21072;-78
2021/08/02 05:20:27;;;;;;;16.67;14.97;;;;;;;25.65;73.44;99575.56;1688637;83;21085;-78
2021/08/02 05:22:54;;;;;;;17.90;15.73;;;;;;;25.67;73.38;99563.08;1682112;84;21052;-75
2021/08/02 05:25:22;;;;;;;19.20;14.70;;;;;;;25.67;73.01;99560.34;1702397;83;21036;-73
2021/08/02 05:27:51;;;;;;;16.37;14.67;;;;;;;25.72;73.06;99572.27;1699806;83;21019;-74
2021/08/02 05:30:18;;;;;;;15.97;14.33;;;;;;;25.80;72.86;99569.04;1699166;83;21059;-73
2021/08/02 05:32:47;;;;;;;15.57;13.97;;;;;;;25.87;72.43;99573.76;1705376;83;21038;-72
2021/08/02 05:35:14;;;;;;;16.70;14.87;;;;;;;25.94;71.95;99577.89;1701516;82;21011;-72
2021/08/02 05:37:41;;;;;;;17.13;15.37;;;;;;;25.99;71.78;99576.13;1697969;83;21121;-71
2021/08/02 05:40:09;;;;;;;19.77;16.10;;;;;;;26.06;71.59;99572.64;1708459;83;21019;-72
2021/08/02 05:42:35;;;;;;;23.03;16.10;;;;;;;26.11;71.63;99562.70;1700131;83;21098;-71
2021/08/02 05:45:05;;;;;;;23.97;16.80;;;;;;;26.12;71.58;99568.36;1697334;83;21051;-73
2021/08/02 05:47:32;;;;;;;22.50;16.33;;;;;;;26.12;71.49;99571.10;1701108;82;21138;-72
2021/08/02 05:49:59;;;;;;;17.90;15.67;;;;;;;26.14;71.42;99556.45;1696338;83;21100;-71
2021/08/02 05:52:28;;;;;;;16.57;14.77;;;;;;;26.15;71.17;99541.59;1698859;83;20995;-75
2021/08/02 05:54:55;;;;;;;16.70;14.37;;;;;;;26.16;71.14;99538.48;1696493;83;21042;-77
2021/08/02 05:57:22;;;;;;;15.37;13.83;;;;;;;26.20;71.34;99556.28;1691034;83;21110;-77
2021/08/02 05:59:49;;;;;;;17.90;13.67;;;;;;;26.27;71.26;99558.26;1703023;83;21107;-73
2021/08/02 06:02:16;;;;;;;14.83;13.43;;;;;;;26.34;71.13;99559.05;1699225;83;21106;-72
2021/08/02 06:04:43;;;;;;;16.13;13.60;;;;;;;26.43;70.91;99540.30;1696817;83;21054;-73
2021/08/02 06:07:09;;;;;;;16.87;13.67;;;;;;;26.52;70.48;99529.56;1694831;83;21047;-73
2021/08/02 06:09:36;;;;;;;13.53;12.13;;;;;;;26.60;70.18;99520.20;1699068;83;21066;-74
2021/08/02 06:12:04;;;;;;;12.83;11.40;;;;;;;26.71;69.90;99529.19;1691962;83;21031;-75
2021/08/02 06:14:32;;;;;;;13.60;11.50;;;;;;;26.82;69.43;99527.25;1708910;83;21063;-74
2021/08/02 06:17:02;;;;;;;11.97;10.70;;;;;;;26.90;68.86;99526.06;1695963;83;21091;-75
2021/08/02 06:19:29;;;;;;;14.30;11.30;;;;;;;26.94;67.97;99528.80;1694185;83;21023;-74
2021/08/02 06:21:56;;;;;;;12.93;11.37;;;;;;;26.93;67.53;99537.42;1706701;83;21074;-74
2021/08/02 06:24:22;;;;;;;11.77;10.57;;;;;;;26.92;67.34;99537.20;1696519;83;21549;-73
2021/08/02 06:26:49;;;;;;;12.40;10.83;;;;;;;26.89;67.07;99539.58;1691502;82;21150;-74
2021/08/02 06:29:16;;;;;;;11.77;10.40;;;;;;;26.90;66.85;99533.50;1700926;83;21170;-73
2021/08/02 06:31:43;;;;;;;13.23;11.10;;;;;;;26.93;66.57;99527.83;1703750;83;20996;-73
2021/08/02 06:34:10;;;;;;;15.33;11.30;;;;;;;26.98;66.45;99533.67;1703397;83;21019;-72
2021/08/02 06:36:37;;;;;;;15.60;12.33;;;;;;;27.08;66.42;99526.06;1697576;83;21295;-72
2021/08/02 06:39:04;;;;;;;14.83;11.93;;;;;;;27.23;66.07;99529.58;1700177;82;22171;-73
2021/08/02 06:41:30;;;;;;;15.63;12.57;;;;;;;27.42;66.13;99522.10;1708760;83;21525;-72
2021/08/02 06:43:57;;;;;;;16.07;12.73;;;;;;;27.63;65.32;99518.50;1700670;83;21122;-74
2021/08/02 06:46:24;;;;;;;17.37;12.97;;;;;;;27.84;64.51;99519.83;1699700;83;21074;-73
2021/08/02 06:48:51;;;;;;;16.20;13.60;;;;;;;27.99;63.58;99524.05;1703819;83;21059;-73
2021/08/02 06:51:19;;;;;;;22.10;13.20;;;;;;;28.08;63.03;99524.21;1697131;83;21102;-72
2021/08/02 06:53:46;;;;;;;19.10;12.97;;;;;;;28.12;62.69;99517.51;1695999;83;21090;-72
2021/08/02 06:56:13;;;;;;;16.90;13.20;;;;;;;28.20;62.66;99531.97;1700913;83;21465;-73
2021/08/02 06:58:41;;;;;;;17.63;13.10;;;;;;;28.27;62.34;99529.20;1698286;83;21764;-73
2021/08/02 07:01:08;;;;;;;15.13;12.63;;;;;;;28.29;62.14;99522.09;1696259;83;21063;-73
2021/08/02 07:03:35;;;;;;;17.40;12.83;;;;;;;28.29;62.00;99526.81;1697526;83;21110;-72
2021/08/02 07:06:01;;;;;;;15.10;11.87;;;;;;;28.26;62.02;99528.39;1701598;83;20999;-72
2021/08/02 07:08:28;;;;;;;15.10;12.23;;;;;;;28.23;61.83;99529.79;1694780;83;21027;-72
2021/08/02 07:10:54;;;;;;;13.00;11.00;;;;;;;28.20;61.81;99536.89;1703537;83;21637;-73
2021/08/02 07:13:21;;;;;;;13.30;10.90;;;;;;;28.22;61.77;99526.86;1700798;83;21103;-72
2021/08/02 07:15:49;;;;;;;11.60;10.07;;;;;;;28.27;61.26;99526.45;1701742;83;21047;-72
2021/08/02 07:18:20;;;;;;;11.97;10.57;;;;;;;28.28;60.33;99528.78;1700063;83;21102;-73
2021/08/02 07:20:48;;;;;;;12.03;10.83;;;;;;;28.29;59.90;99526.81;1697382;83;21023;-73
2021/08/02 07:23:14;;;;;;;12.17;10.63;;;;;;;28.33;59.39;99530.31;1701177;83;21046;-72
2021/08/02 07:25:41;;;;;;;11.53;10.10;;;;;;;28.41;58.80;99535.22;1698775;83;21062;-72
2021/08/02 07:28:09;;;;;;;14.53;9.50;;;;;;;28.52;58.63;99529.82;1689739;82;21185;-73
2021/08/02 07:30:36;;;;;;;10.82;9.70;;;;;;;28.68;58.13;99530.69;1698888;83;21101;-73
2021/08/02 07:33:03;;;;;;;11.17;9.70;;;;;;;28.81;57.23;99532.95;1695856;83;21063;-71
2021/08/02 07:35:30;;;;;;;12.70;10.20;;;;;;;28.92;56.44;99530.88;1706273;83;21640;-73
2021/08/02 07:37:58;;;;;;;12.37;9.73;;;;;;;29.05;56.00;99529.81;1703950;83;21720;-74
2021/08/02 07:40:24;;;;;;;10.40;9.27;;;;;;;29.15;55.75;99529.70;1699457;82;21087;-73
2021/08/02 07:42:54;;;;;;;11.37;9.23;;;;;;;29.25;54.83;99524.51;1698560;83;21015;-73
2021/08/02 07:45:20;;;;;;;11.30;9.65;;;;;;;29.26;54.00;99538.47;1698054;83;21110;-71
2021/08/02 07:47:47;;;;;;;11.10;10.00;;;;;;;29.19;54.09;99540.09;1707319;83;21035;-73
2021/08/02 07:50:15;;;;;;;11.10;9.70;;;;;;;29.18;54.17;99535.77;1694995;83;21062;-72
2021/08/02 07:52:43;;;;;;;11.07;9.87;;;;;;;29.23;54.35;99531.80;1692946;83;21505;-73
2021/08/02 07:55:11;;;;;;;12.43;9.83;;;;;;;29.28;54.08;99534.70;1699475;83;21047;-74
2021/08/02 07:57:38;;;;;;;10.95;9.45;;;;;;;29.36;54.33;99536.20;1694349;83;21090;-74
2021/08/02 08:00:08;;;;;;;12.35;9.30;;;;;;;29.45;54.08;99537.27;1699160;83;21074;-73
2021/08/02 08:02:39;;;;;;;12.23;8.65;;;;;;;29.50;52.26;99540.16;1699871;83;21078;-74
2021/08/02 08:05:06;;;;;;;11.08;8.70;;;;;;;29.50;52.39;99547.63;1692869;83;21130;-73
2021/08/02 08:07:48;;;;;;;10.72;8.25;;;;;;;29.48;52.21;99543.91;1697481;83;21553;-71
2021/08/02 08:10:17;;;;;;;10.05;8.70;;;;;;;29.52;52.05;99539.16;1691096;83;21038;-70
2021/08/02 08:12:44;;;;;;;9.70;8.13;;;;;;;29.59;51.79;99545.18;1700803;83;21090;-73
2021/08/02 08:15:10;;;;;;;8.40;7.47;;;;;;;29.70;51.34;99550.58;1698667;83;21049;-74
2021/08/02 08:17:37;;;;;;;9.25;8.25;;;;;;;29.78;50.83;99554.80;1692967;83;21582;-73
2021/08/02 08:20:05;;;;;;;10.18;8.78;;;;;;;29.84;50.38;99549.80;1698686;83;20990;-73
2021/08/02 08:22:32;;;;;;;9.98;8.78;;;;;;;29.94;50.31;99551.45;1694375;83;21094;-74
2021/08/02 08:24:58;;;;;;;9.30;7.95;;;;;;;30.02;50.14;99553.72;1699020;83;21032;-72
2021/08/02 08:27:25;;;;;;;10.28;7.80;;;;;;;30.12;49.83;99553.39;1703652;83;21098;-73
2021/08/02 08:29:53;;;;;;;8.68;7.72;;;;;;;30.23;49.94;99540.88;1699871;83;21420;-73
2021/08/02 08:32:20;;;;;;;9.58;7.97;;;;;;;30.26;48.25;99552.44;1699362;83;21136;-74
2021/08/02 08:34:47;;;;;;;9.20;8.15;;;;;;;30.28;47.88;99546.70;1702608;83;21610;-73
2021/08/02 08:37:14;;;;;;;13.68;8.90;;;;;;;30.28;49.03;99554.97;1697075;83;21059;-73
2021/08/02 08:39:40;;;;;;;9.65;8.55;;;;;;;30.35;49.54;99558.22;1693282;82;21043;-73
2021/08/02 08:42:07;;;;;;;8.95;7.83;;;;;;;30.40;49.52;99558.33;1699346;83;21480;-72
2021/08/02 08:44:34;;;;;;;9.98;7.85;;;;;;;30.41;49.07;99558.53;1701679;83;21039;-71
2021/08/02 08:47:01;;;;;;;9.85;8.25;;;;;;;30.45;48.38;99555.90;1698960;83;21069;-71
2021/08/02 08:49:29;;;;;;;10.05;8.40;;;;;;;30.53;48.59;99559.31;1697774;83;21063;-71
2021/08/02 08:51:55;;;;;;;8.23;7.42;;;;;;;30.64;48.58;99559.17;1697662;83;21007;-71
2021/08/02 08:54:22;;;;;;;10.03;8.13;;;;;;;30.79;48.55;99561.89;1681879;83;21520;-71
2021/08/02 08:56:52;;;;;;;8.68;7.20;;;;;;;30.94;48.50;99545.91;1700447;83;21565;-73
2021/08/02 08:59:19;;;;;;;8.40;7.03;;;;;;;31.13;47.67;99547.13;1695646;83;21039;-73
2021/08/02 09:01:46;;;;;;;9.60;7.53;;;;;;;31.24;46.47;99549.12;1695232;83;21101;-72
2021/08/02 09:04:13;;;;;;;8.50;7.08;;;;;;;31.33;45.87;99554.89;1702434;83;21662;-72
2021/08/02 09:06:47;;;;;;;10.00;6.85;;;;;;;31.40;45.58;99549.23;1695226;83;22090;-72
2021/08/02 09:09:32;;;;;;;10.70;7.95;;;;;;;31.43;44.76;99553.14;1699079;83;21533;-72
2021/08/02 09:12:16;;;;;;;8.20;7.40;;;;;;;31.44;45.54;99549.16;1698739;83;20964;-73
2021/08/02 09:14:57;;;;;;;9.58;7.22;;;;;;;31.47;45.92;99549.70;1699680;83;21027;-72
2021/08/02 09:17:38;;;;;;;8.00;6.42;;;;;;;31.52;43.96;99546.44;1707074;83;21043;-72
2021/08/02 09:20:08;;;;;;;9.20;6.30;;;;;;;31.49;43.13;99539.00;1696874;83;24772;-72
2021/08/02 09:22:36;;;;;;;7.72;6.35;;;;;;;31.47;42.55;99546.34;1698550;83;21046;-72
2021/08/02 09:25:11;;;;;;;9.73;6.92;;;;;;;31.44;42.46;99534.77;1690012;83;21115;-72
2021/08/02 09:27:39;;;;;;;8.48;6.95;;;;;;;31.37;42.40;99537.66;1697508;83;21090;-71
2021/08/02 09:30:20;;;;;;;7.78;6.97;;;;;;;31.34;43.00;99544.63;1711172;83;21067;-72
2021/08/02 09:33:06;;;;;;;8.00;6.42;;;;;;;31.26;43.59;99546.70;1696431;83;21850;-74
2021/08/02 09:35:42;;;;;;;8.98;6.53;;;;;;;31.11;42.20;99553.09;1700441;83;21007;-71
2021/08/02 09:38:13;;;;;;;8.23;6.97;;;;;;;31.10;43.17;99557.63;1709998;83;21562;-71
2021/08/02 09:40:49;;;;;;;11.85;6.95;;;;;;;31.11;42.70;99550.94;1695321;83;21750;-71
2021/08/02 09:43:20;;;;;;;7.50;6.22;;;;;;;31.22;43.68;99552.89;1695969;83;21067;-72
2021/08/02 09:45:56;;;;;;;8.00;6.70;;;;;;;31.43;42.31;99564.17;1696092;83;21143;-73
2021/08/02 09:48:40;;;;;;;10.10;6.58;;;;;;;31.50;42.06;99548.86;1696690;83;21055;-71
2021/08/02 09:51:15;;;;;;;8.75;6.97;;;;;;;31.56;41.88;99551.87;1707533;83;21095;-72
2021/08/02 09:53:46;;;;;;;10.00;7.12;;;;;;;31.57;41.77;99551.47;1702522;82;21026;-71
2021/08/02 09:56:16;;;;;;;8.65;7.30;;;;;;;31.69;41.33;99559.13;1702678;83;21146;-72
2021/08/02 09:58:45;;;;;;;9.68;6.10;;;;;;;31.80;41.18;99561.66;1692573;83;21122;-72
2021/08/02 10:01:14;;;;;;;9.40;5.97;;;;;;;31.80;39.70;99559.51;1696925;83;21007;-73
2021/08/02 10:03:41;;;;;;;9.83;5.78;;;;;;;31.72;39.87;99558.28;1693842;82;21594;-71
2021/08/02 10:06:10;;;;;;;8.20;6.00;;;;;;;31.75;40.09;99564.33;1701449;83;21066;-71
2021/08/02 10:08:37;;;;;;;8.18;5.15;;;;;;;31.93;39.91;99551.55;1694069;83;21075;-70
2021/08/02 10:11:04;;;;;;;7.60;5.25;;;;;;;32.13;39.68;99552.13;1713091;83;21146;-72
2021/08/02 10:13:40;;;;;;;8.68;4.92;;;;;;;32.20;38.26;99557.48;1703836;83;21142;-72
2021/08/02 10:16:10;;;;;;;9.33;5.08;;;;;;;32.05;38.14;99571.42;1681922;83;21076;-72
2021/08/02 10:18:37;;;;;;;7.25;4.58;;;;;;;31.78;38.10;99571.73;1700081;83;20976;-72
2021/08/02 10:21:10;;;;;;;9.40;5.20;;;;;;;31.56;38.54;99571.20;1694619;83;21015;-71
2021/08/02 10:23:41;;;;;;;9.83;5.17;;;;;;;31.45;39.20;99572.79;1709989;83;21560;-71
2021/08/02 10:26:29;;;;;;;7.10;4.70;;;;;;;31.48;39.22;99576.86;1695709;83;21062;-71
2021/08/02 10:28:59;;;;;;;8.50;5.12;;;;;;;31.60;39.27;99576.84;1693417;83;21090;-72
2021/08/02 10:31:27;;;;;;;7.05;5.12;;;;;;;31.64;39.70;99569.27;1701889;83;21082;-72
2021/08/02 10:33:55;;;;;;;8.15;5.05;;;;;;;31.61;40.40;99574.86;1697436;82;21760;-73
2021/08/02 10:36:23;;;;;;;8.83;5.12;;;;;;;31.62;40.32;99583.31;1696024;83;21508;-73
2021/08/02 10:38:53;;;;;;;8.18;4.72;;;;;;;31.57;39.98;99579.07;1698046;83;21062;-71
2021/08/02 10:41:29;;;;;;;8.70;5.45;;;;;;;31.51;40.52;99583.52;1702534;83;21031;-73
2021/08/02 10:43:58;;;;;;;8.03;5.30;;;;;;;31.54;40.50;99582.07;1699705;83;21058;-72
2021/08/02 10:46:27;;;;;;;9.60;5.25;;;;;;;31.61;39.86;99589.44;1669062;85;21068;-73
2021/08/02 10:48:57;;;;;;;8.90;5.33;;;;;;;31.58;40.06;99581.23;1692647;83;21114;-72
2021/08/02 10:51:24;;;;;;;9.53;5.67;;;;;;;31.54;39.77;99590.95;1696064;83;21590;-72
2021/08/02 10:54:02;;;;;;;6.62;5.10;;;;;;;31.43;40.28;99587.63;1693280;82;21059;-71
2021/08/02 10:56:31;;;;;;;9.45;5.78;;;;;;;31.35;40.46;99585.58;1681306;83;21520;-72
2021/08/02 10:58:59;;;;;;;7.42;5.20;;;;;;;31.31;40.94;99616.58;1689891;84;20972;-72
2021/08/02 11:01:28;;;;;;;8.77;5.53;;;;;;;31.18;40.87;99594.33;1716256;83;21094;-71
2021/08/02 11:03:56;;;;;;;9.90;5.47;;;;;;;31.05;41.42;99598.28;1698132;83;21631;-71
2021/08/02 11:06:23;;;;;;;7.53;5.62;;;;;;;31.01;42.07;99606.45;1698076;82;21064;-71
2021/08/02 11:08:53;;;;;;;8.90;5.50;;;;;;;30.99;42.40;99605.48;1708435;83;21599;-71
2021/08/02 11:11:31;;;;;;;7.87;5.33;;;;;;;30.94;41.93;99610.70;1680642;84;21016;-71
2021/08/02 11:14:20;;;;;;;10.30;5.15;;;;;;;30.85;42.64;99620.87;1678596;85;21108;-71
2021/08/02 11:16:47;;;;;;;7.72;5.10;;;;;;;30.81;41.95;99633.34;1651888;84;21095;-71
2021/08/02 11:19:24;;;;;;;8.13;4.90;;;;;;;30.61;41.65;99623.57;1661300;83;21093;-72
2021/08/02 11:22:01;;;;;;;6.47;4.53;;;;;;;30.45;41.97;99607.47;1671350;85;21089;-71
2021/08/02 11:24:29;;;;;;;9.87;5.00;;;;;;;30.34;42.57;99596.61;1682673;84;21064;-71
2021/08/02 11:26:59;;;;;;;9.70;5.37;;;;;;;30.30;43.56;99598.02;1671920;83;21164;-72
2021/08/02 11:29:34;;;;;;;6.35;4.65;;;;;;;30.37;43.02;99581.98;1698353;83;21077;-72
2021/08/02 11:32:12;;;;;;;7.25;5.00;;;;;;;30.46;43.22;99587.76;1683206;84;21023;-71
2021/08/02 11:34:40;;;;;;;7.90;5.20;;;;;;;30.59;43.28;99582.45;1678988;85;21140;-73